Time;durP1;ratioP1;P1;durP2;ratioP2;P2;SDS_P1;SDS_P2;PMS_P1;PMS_P2;Temp;Humidity;BMP_temperature;BMP_pressure;BME280_temperature;BME280_humidity;BME280_pressure;Samples;Min_cycle;Max_cycle;Signal;HPM_P1;HPM_P2
2021/12/17 00:04:38;;;;;;;5.73;5.40;;;16.90;68.60;;;;;;5039668;28;44225;-70
2021/12/17 00:07:08;;;;;;;5.70;5.30;;;16.90;69.60;;;;;;5048012;28;43893;-69
2021/12/17 00:09:36;;;;;;;5.73;5.43;;;17.00;68.80;;;;;;5047583;28;44047;-70
2021/12/17 00:12:05;;;;;;;5.50;5.10;;;17.10;68.40;;;;;;5030054;28;43415;-70
2021/12/17 00:14:37;;;;;;;5.60;5.30;;;17.10;68.00;;;;;;5047640;28;44112;-70
2021/12/17 00:17:08;;;;;;;5.30;5.00;;;17.10;68.00;;;;;;5047683;28;43400;-70
2021/12/17 00:19:54;;;;;;;5.00;4.70;;;17.10;68.20;;;;;;5047893;28;43890;-69
2021/12/17 00:50:34;;;;;;;5.00;4.70;;;17.00;68.60;;;;;;5029084;28;45053;-69
2021/12/17 00:53:02;;;;;;;5.20;4.90;;;17.20;68.10;;;;;;5029210;28;44370;-70
2021/12/17 00:55:30;;;;;;;5.30;4.90;;;17.40;67.60;;;;;;5047471;28;43968;-70
2021/12/17 00:57:59;;;;;;;4.83;4.63;;;17.40;67.20;;;;;;5047014;28;43865;-69
2021/12/17 01:00:27;;;;;;;5.17;4.80;;;17.40;67.20;;;;;;5028806;28;45180;-69
2021/12/17 01:02:57;;;;;;;5.00;4.80;;;17.30;67.30;;;;;;5028944;28;44029;-70
2021/12/17 01:05:28;;;;;;;5.33;4.97;;;17.20;68.30;;;;;;5028870;28;44161;-69
2021/12/17 01:07:56;;;;;;;5.23;4.93;;;17.10;67.80;;;;;;5047002;28;44008;-70
2021/12/17 01:10:25;;;;;;;5.17;4.87;;;17.10;68.00;;;;;;5028519;28;44113;-70
2021/12/17 01:13:00;;;;;;;5.00;4.70;;;17.00;68.10;;;;;;5028924;28;44083;-70
2021/12/17 01:15:43;;;;;;;5.00;4.80;;;17.00;68.30;;;;;;5047505;28;43502;-69
2021/12/17 01:18:22;;;;;;;4.70;4.40;;;16.90;68.40;;;;;;5028533;28;45341;-70
2021/12/17 01:21:21;;;;;;;4.77;4.57;;;16.90;68.60;;;;;;5028507;28;43969;-70
2021/12/17 01:24:14;;;;;;;4.63;4.43;;;16.90;68.80;;;;;;5028698;28;44064;-70
2021/12/17 01:36:07;;;;;;;4.40;4.20;;;17.10;68.10;;;;;;5028547;28;43987;-69
2021/12/17 01:39:42;;;;;;;4.97;4.77;;;17.00;68.20;;;;;;5028811;28;43805;-69
2021/12/17 01:42:04;;;;;;;4.47;4.27;;;17.00;68.50;;;;;;5046077;28;44758;-70
2021/12/17 01:44:33;;;;;;;4.53;4.30;;;16.90;68.70;;;;;;5011078;28;45525;-70
2021/12/17 01:47:04;;;;;;;4.03;3.83;;;16.90;68.80;;;;;;5027337;28;43444;-70
2021/12/17 02:00:43;;;;;;;4.10;3.90;;;16.80;69.20;;;;;;5040377;28;43779;-70
2021/12/17 02:03:13;;;;;;;4.67;4.37;;;16.80;69.30;;;;;;5035191;28;47020;-70
2021/12/17 02:05:43;;;;;;;3.60;3.50;;;16.90;69.00;;;;;;5021392;28;46128;-70
2021/12/17 02:08:12;;;;;;;3.60;3.50;;;17.10;68.50;;;;;;5027927;28;43984;-69
2021/12/17 02:11:14;;;;;;;4.23;4.07;;;17.20;67.90;;;;;;5028205;28;43455;-69
2021/12/17 02:30:57;;;;;;;3.83;3.73;;;17.00;68.30;;;;;;5027830;28;44072;-70
2021/12/17 02:33:25;;;;;;;3.80;3.70;;;17.00;68.50;;;;;;5028219;28;43523;-70
2021/12/17 02:35:53;;;;;;;3.97;3.87;;;16.90;68.60;;;;;;5045861;28;44017;-69
2021/12/17 02:38:22;;;;;;;4.13;3.93;;;16.90;68.70;;;;;;5045723;28;43852;-69
2021/12/17 02:46:58;;;;;;;3.63;3.53;;;17.00;68.30;;;;;;5012643;28;44984;-70
2021/12/17 02:49:26;;;;;;;3.80;3.70;;;17.10;68.00;;;;;;5027292;28;45498;-70
2021/12/17 02:51:54;;;;;;;3.30;3.20;;;17.10;68.00;;;;;;5027849;28;43944;-70
2021/12/17 02:54:23;;;;;;;3.73;3.63;;;17.00;68.10;;;;;;5028176;28;44041;-70
2021/12/17 02:56:51;;;;;;;4.00;3.80;;;17.00;68.30;;;;;;5045478;28;43773;-70
2021/12/17 02:59:19;;;;;;;3.13;3.03;;;17.00;68.60;;;;;;5047588;28;43433;-69
2021/12/17 03:01:47;;;;;;;3.63;3.53;;;16.90;68.70;;;;;;5048762;28;43937;-69
2021/12/17 03:04:14;;;;;;;3.10;3.03;;;16.90;68.80;;;;;;5049102;28;43936;-70
2021/12/17 03:06:42;;;;;;;3.47;3.37;;;16.80;68.90;;;;;;5048757;28;43948;-70
2021/12/17 03:09:10;;;;;;;3.63;3.53;;;16.80;69.00;;;;;;5048524;28;44021;-69
2021/12/17 03:11:40;;;;;;;3.73;3.63;;;16.80;69.10;;;;;;5030506;28;43373;-70
2021/12/17 03:14:08;;;;;;;3.43;3.33;;;16.80;69.10;;;;;;5048967;28;44211;-70
2021/12/17 03:16:41;;;;;;;3.63;3.53;;;16.70;69.10;;;;;;5048471;28;43564;-69
2021/12/17 03:19:13;;;;;;;3.20;3.10;;;16.80;69.40;;;;;;5048687;28;43930;-70
2021/12/17 03:24:27;;;;;;;3.23;3.13;;;17.00;68.70;;;;;;5030877;28;43687;-70
2021/12/17 03:26:56;;;;;;;3.37;3.27;;;17.10;68.20;;;;;;5048490;28;43875;-70
2021/12/17 03:29:24;;;;;;;3.10;3.00;;;17.30;67.70;;;;;;5030554;28;45892;-70
2021/12/17 03:32:00;;;;;;;3.33;3.23;;;17.30;67.40;;;;;;5030249;28;43993;-70
2021/12/17 03:34:28;;;;;;;3.10;3.00;;;17.30;67.30;;;;;;5030586;28;43627;-69
2021/12/17 03:36:57;;;;;;;3.20;3.10;;;17.20;67.50;;;;;;5030124;28;46873;-69
2021/12/17 03:39:33;;;;;;;3.13;3.03;;;17.10;67.80;;;;;;5030022;28;45996;-69
2021/12/17 03:42:06;;;;;;;3.13;3.03;;;17.10;68.20;;;;;;5048239;28;44287;-69
2021/12/17 03:44:37;;;;;;;3.07;2.97;;;17.00;68.30;;;;;;5030461;28;43418;-70
2021/12/17 03:47:11;;;;;;;3.60;3.40;;;16.90;68.50;;;;;;5045051;28;43850;-70
2021/12/17 03:49:53;;;;;;;3.10;3.00;;;16.90;68.60;;;;;;5030301;28;44012;-70
2021/12/17 03:52:21;;;;;;;3.23;3.13;;;16.90;68.80;;;;;;5030099;28;43996;-70
2021/12/17 03:54:49;;;;;;;3.03;2.93;;;16.90;68.80;;;;;;5030610;28;44151;-70
2021/12/17 03:57:20;;;;;;;3.03;2.93;;;16.80;68.90;;;;;;5047947;28;44543;-69
2021/12/17 03:59:51;;;;;;;3.10;3.00;;;16.90;68.80;;;;;;5020597;28;45075;-70
2021/12/17 04:02:24;;;;;;;3.10;3.00;;;17.00;68.30;;;;;;5024439;28;44008;-70
2021/12/17 04:04:52;;;;;;;3.10;3.00;;;17.10;68.00;;;;;;5029651;28;44027;-70
2021/12/17 04:07:53;;;;;;;2.70;2.67;;;17.10;68.00;;;;;;5047441;28;43787;-69
2021/12/17 04:10:52;;;;;;;3.00;2.90;;;17.10;68.10;;;;;;5028368;28;44022;-69
2021/12/17 04:13:30;;;;;;;3.13;3.03;;;17.00;68.20;;;;;;5029939;28;43491;-70
2021/12/17 04:16:06;;;;;;;2.87;2.77;;;17.00;68.40;;;;;;5030004;28;44200;-69
2021/12/17 04:18:35;;;;;;;2.90;2.80;;;16.90;68.50;;;;;;5029455;28;45831;-70
2021/12/17 04:21:09;;;;;;;3.43;3.33;;;16.90;68.70;;;;;;5029315;28;43894;-70
2021/12/17 04:23:37;;;;;;;2.57;2.57;;;16.90;68.70;;;;;;5029677;28;43388;-69
2021/12/17 04:26:05;;;;;;;3.20;3.10;;;16.90;68.90;;;;;;5029761;28;43981;-70
2021/12/17 04:28:36;;;;;;;3.00;2.90;;;16.80;68.80;;;;;;5029327;28;46654;-70
2021/12/17 04:31:04;;;;;;;3.10;2.77;;;16.80;68.80;;;;;;5029862;28;44018;-70
2021/12/17 04:33:38;;;;;;;2.90;2.80;;;16.80;68.90;;;;;;5029518;28;43851;-69
2021/12/17 04:36:07;;;;;;;2.70;2.60;;;16.80;69.10;;;;;;5029620;28;43494;-70
2021/12/17 04:38:35;;;;;;;2.70;2.60;;;16.90;68.90;;;;;;5029103;28;46735;-69
2021/12/17 04:41:36;;;;;;;2.87;2.77;;;17.00;68.50;;;;;;5028970;28;43400;-69
2021/12/17 04:44:06;;;;;;;2.90;2.80;;;17.20;68.10;;;;;;5029118;28;43440;-69
2021/12/17 04:46:38;;;;;;;2.90;2.80;;;17.30;67.60;;;;;;5029598;28;44046;-70
2021/12/17 04:57:29;;;;;;;3.60;3.30;;;17.20;67.90;;;;;;5029588;28;43969;-70
2021/12/17 05:00:01;;;;;;;4.10;3.80;;;17.10;68.10;;;;;;5029057;28;45903;-69
2021/12/17 05:02:30;;;;;;;4.43;3.80;;;17.00;68.20;;;;;;5028363;28;44452;-70
2021/12/17 05:05:08;;;;;;;5.23;4.27;;;17.00;68.40;;;;;;5028682;28;43484;-69
2021/12/17 05:07:44;;;;;;;6.93;4.73;;;16.90;68.60;;;;;;5029322;28;43624;-70
2021/12/17 05:10:20;;;;;;;6.40;4.90;;;16.90;68.70;;;;;;5028574;28;44115;-70
2021/12/17 05:18:24;;;;;;;8.10;5.10;;;17.00;68.70;;;;;;5029271;28;44040;-70
2021/12/17 05:21:00;;;;;;;8.13;5.13;;;17.10;68.20;;;;;;5028249;28;45979;-69
2021/12/17 05:23:36;;;;;;;10.27;5.13;;;17.10;68.70;;;;;;5028721;28;43979;-69
2021/12/17 05:26:07;;;;;;;5.10;4.60;;;17.10;68.10;;;;;;5008975;28;44024;-69
2021/12/17 05:28:40;;;;;;;6.13;4.87;;;17.00;68.10;;;;;;5026326;28;43950;-71
2021/12/17 05:31:10;;;;;;;7.10;5.23;;;17.00;68.30;;;;;;5028285;28;43918;-69
2021/12/17 05:33:44;;;;;;;7.13;5.23;;;16.90;68.40;;;;;;5028419;28;44352;-70
2021/12/17 05:36:14;;;;;;;9.17;5.67;;;16.90;68.60;;;;;;5028698;28;44018;-69
2021/12/17 05:38:54;;;;;;;9.70;5.70;;;16.90;68.70;;;;;;5029132;28;44390;-70
2021/12/17 05:41:23;;;;;;;9.33;6.00;;;16.80;68.70;;;;;;5028242;28;44054;-70
2021/12/17 05:44:05;;;;;;;12.37;6.60;;;16.80;68.80;;;;;;5028721;28;46078;-70
2021/12/17 05:46:48;;;;;;;8.17;6.10;;;16.80;68.80;;;;;;5028460;28;43936;-69
2021/12/17 05:49:18;;;;;;;9.43;5.80;;;16.80;68.90;;;;;;5028582;28;43445;-70
2021/12/17 05:51:47;;;;;;;7.07;5.43;;;16.80;69.10;;;;;;5028043;28;45959;-70
2021/12/17 05:54:15;;;;;;;8.50;5.70;;;16.80;69.80;;;;;;5028125;28;44668;-70
2021/12/17 05:56:43;;;;;;;11.07;5.93;;;16.90;68.80;;;;;;5028187;28;43930;-69
2021/12/17 05:59:11;;;;;;;11.37;6.43;;;17.10;68.50;;;;;;5028354;28;44093;-69
2021/12/17 06:01:41;;;;;;;8.50;5.90;;;17.20;68.00;;;;;;5027708;28;46796;-70
2021/12/17 06:04:10;;;;;;;6.67;5.23;;;17.30;67.40;;;;;;5027937;28;44116;-70
2021/12/17 06:06:51;;;;;;;7.53;5.83;;;17.40;67.30;;;;;;5028398;28;43927;-70
2021/12/17 06:09:19;;;;;;;10.63;5.83;;;17.30;67.30;;;;;;5028669;28;44260;-70
2021/12/17 06:11:47;;;;;;;7.50;5.57;;;17.20;67.50;;;;;;5028255;28;45754;-69
2021/12/17 06:14:18;;;;;;;7.17;5.43;;;17.20;67.90;;;;;;5028100;28;45559;-70
2021/12/17 06:16:48;;;;;;;8.97;5.93;;;17.10;68.10;;;;;;5028064;28;43952;-69
2021/12/17 06:19:26;;;;;;;7.93;5.93;;;17.00;68.20;;;;;;5028276;28;43879;-70
2021/12/17 06:21:58;;;;;;;7.13;5.57;;;17.00;68.50;;;;;;5027557;28;45051;-69
2021/12/17 06:24:27;;;;;;;9.20;6.10;;;16.90;68.60;;;;;;5027714;28;46089;-69
2021/12/17 06:26:56;;;;;;;5.70;5.00;;;16.90;68.70;;;;;;5027907;28;43441;-69
2021/12/17 06:29:25;;;;;;;6.10;5.07;;;16.80;68.80;;;;;;5028185;28;44065;-70
2021/12/17 06:32:04;;;;;;;7.40;5.20;;;16.80;69.00;;;;;;5027618;28;45518;-69
2021/12/17 06:34:32;;;;;;;8.57;5.57;;;16.90;69.00;;;;;;5030159;28;44543;-70
2021/12/17 06:37:01;;;;;;;6.90;5.40;;;17.00;68.40;;;;;;5031235;28;43923;-70
2021/12/17 06:39:29;;;;;;;8.07;5.50;;;17.00;68.10;;;;;;5031371;28;44060;-70
2021/12/17 06:41:57;;;;;;;5.87;4.87;;;17.00;68.10;;;;;;5030831;28;45375;-70
2021/12/17 06:44:26;;;;;;;5.87;5.10;;;17.00;68.20;;;;;;5030890;28;45119;-69
2021/12/17 06:46:59;;;;;;;5.73;5.17;;;17.00;68.40;;;;;;5031148;28;44090;-70
2021/12/17 06:49:44;;;;;;;7.23;5.27;;;16.90;68.60;;;;;;5031367;28;43835;-69
2021/12/17 06:56:02;;;;;;;6.00;4.80;;;16.80;68.80;;;;;;5030847;28;44038;-69
2021/12/17 06:59:02;;;;;;;5.10;4.60;;;16.80;69.00;;;;;;5031007;28;43852;-70
2021/12/17 07:11:35;;;;;;;5.63;5.10;;;16.70;69.40;;;;;;5030673;28;43962;-70
2021/12/17 07:22:28;;;;;;;7.37;5.20;;;17.30;67.60;;;;;;5047677;28;44179;-70
2021/12/17 07:28:11;;;;;;;5.90;5.03;;;17.20;67.50;;;;;;5047596;28;44032;-70
2021/12/17 07:33:59;;;;;;;6.00;5.00;;;17.10;68.10;;;;;;4989627;28;44054;-70
2021/12/17 07:36:43;;;;;;;4.93;4.47;;;17.00;68.30;;;;;;4989634;28;44091;-70
2021/12/17 07:39:15;;;;;;;5.63;5.10;;;17.00;68.50;;;;;;5017689;28;43991;-70
2021/12/17 07:42:03;;;;;;;5.33;4.80;;;16.90;68.50;;;;;;5044725;28;43960;-70
2021/12/17 07:44:57;;;;;;;5.83;4.80;;;16.90;68.70;;;;;;5025660;28;43420;-69
2021/12/17 07:47:39;;;;;;;4.63;4.23;;;16.90;68.80;;;;;;5030043;28;44039;-70
2021/12/17 07:50:28;;;;;;;5.00;4.60;;;16.90;69.00;;;;;;5029802;28;46017;-70
2021/12/17 07:53:08;;;;;;;5.67;5.07;;;17.00;68.70;;;;;;5029451;28;45659;-69
2021/12/17 07:55:44;;;;;;;6.37;4.80;;;17.10;68.20;;;;;;5029565;28;44024;-70
2021/12/17 07:58:17;;;;;;;5.10;4.60;;;17.10;68.00;;;;;;5030000;28;43571;-70
2021/12/17 08:00:45;;;;;;;4.40;4.00;;;17.10;68.10;;;;;;5029238;28;45472;-70
2021/12/17 08:03:14;;;;;;;5.23;4.57;;;17.00;68.20;;;;;;5029367;28;43914;-70
2021/12/17 08:05:59;;;;;;;4.97;4.57;;;17.00;68.30;;;;;;5029072;28;44183;-70
2021/12/17 08:08:28;;;;;;;4.90;4.47;;;16.90;68.60;;;;;;5029807;28;43571;-70
2021/12/17 08:11:18;;;;;;;5.60;4.23;;;16.90;68.70;;;;;;5029309;28;44102;-71
2021/12/17 08:13:48;;;;;;;4.60;4.20;;;16.80;68.80;;;;;;5029335;28;44892;-70
2021/12/17 08:16:30;;;;;;;5.00;4.50;;;16.80;69.00;;;;;;5029370;28;44034;-69
2021/12/17 08:24:46;;;;;;;6.07;5.07;;;16.70;69.10;;;;;;5029101;28;45725;-70
2021/12/17 08:27:43;;;;;;;4.60;4.30;;;16.70;69.30;;;;;;5029440;28;43452;-70
2021/12/17 08:30:23;;;;;;;5.30;4.80;;;16.80;69.20;;;;;;5029604;28;43491;-70
2021/12/17 08:33:01;;;;;;;5.53;4.33;;;17.00;68.80;;;;;;5029118;28;45542;-69
2021/12/17 08:35:29;;;;;;;4.50;4.10;;;17.20;68.30;;;;;;5029350;28;43885;-70
2021/12/17 08:38:04;;;;;;;5.27;4.87;;;17.30;67.70;;;;;;5028993;28;43906;-70
2021/12/17 08:40:34;;;;;;;4.60;4.27;;;17.30;67.40;;;;;;5029346;28;44183;-70
2021/12/17 08:43:04;;;;;;;4.97;4.50;;;17.30;67.40;;;;;;5028592;28;44842;-70
2021/12/17 08:45:41;;;;;;;4.90;4.50;;;17.20;67.70;;;;;;5028945;28;44008;-70
2021/12/17 08:48:40;;;;;;;4.90;4.50;;;17.10;67.90;;;;;;5044647;28;43968;-70
2021/12/17 08:51:29;;;;;;;4.70;4.30;;;17.00;68.10;;;;;;5046456;28;43550;-69
2021/12/17 08:53:57;;;;;;;5.13;4.57;;;17.00;68.30;;;;;;5028429;28;46554;-70
2021/12/17 08:56:29;;;;;;;4.83;4.30;;;16.90;68.40;;;;;;5028034;28;45598;-70
2021/12/17 08:59:00;;;;;;;4.37;4.07;;;16.90;68.60;;;;;;5046992;28;43933;-69
2021/12/17 09:01:35;;;;;;;5.10;4.60;;;16.90;68.70;;;;;;5029046;28;44069;-70
2021/12/17 09:04:03;;;;;;;4.40;4.07;;;16.80;68.80;;;;;;5028024;28;45517;-70
2021/12/17 09:06:36;;;;;;;4.70;4.30;;;16.80;68.90;;;;;;5027284;28;43981;-69
2021/12/17 09:09:05;;;;;;;4.33;4.03;;;16.90;68.80;;;;;;5045243;28;43925;-70
2021/12/17 09:11:40;;;;;;;4.80;4.40;;;17.00;68.40;;;;;;5027594;28;44167;-70
2021/12/17 09:14:20;;;;;;;4.10;3.80;;;17.10;68.20;;;;;;5026917;28;44147;-69
2021/12/17 09:16:53;;;;;;;3.60;3.40;;;17.10;68.10;;;;;;5027262;28;43966;-69
2021/12/17 09:19:24;;;;;;;4.10;3.87;;;17.00;68.10;;;;;;5007645;28;44327;-69
2021/12/17 09:21:56;;;;;;;4.43;4.10;;;17.00;68.40;;;;;;5021851;28;43926;-70
2021/12/17 09:24:40;;;;;;;4.27;3.97;;;17.00;68.50;;;;;;5026824;28;44855;-69
2021/12/17 09:27:17;;;;;;;4.13;3.83;;;16.90;68.70;;;;;;5041809;28;43555;-70
2021/12/17 09:30:25;;;;;;;4.50;4.20;;;16.90;68.80;;;;;;5003044;28;43990;-69
2021/12/17 09:32:53;;;;;;;4.03;3.80;;;16.80;68.80;;;;;;4987002;28;44026;-69
2021/12/17 09:35:22;;;;;;;4.10;3.80;;;16.80;68.90;;;;;;5023230;28;44173;-70
2021/12/17 09:37:50;;;;;;;3.97;3.77;;;16.80;69.00;;;;;;5044804;28;44120;-69
2021/12/17 09:40:18;;;;;;;4.30;4.00;;;16.80;69.10;;;;;;5044597;28;44052;-70
2021/12/17 09:42:47;;;;;;;4.80;4.40;;;16.80;69.20;;;;;;5045117;28;43914;-70
2021/12/17 09:45:15;;;;;;;3.90;3.70;;;16.80;69.30;;;;;;5044571;28;43953;-69
2021/12/17 09:47:45;;;;;;;3.70;3.50;;;16.90;69.70;;;;;;5044640;28;43953;-70
2021/12/17 09:50:15;;;;;;;4.43;4.03;;;17.00;68.60;;;;;;5044625;28;43945;-70
2021/12/17 09:52:43;;;;;;;4.03;3.73;;;17.20;68.20;;;;;;5044825;28;44012;-70
2021/12/17 09:55:10;;;;;;;3.60;3.40;;;17.30;67.60;;;;;;5044431;28;43896;-70
2021/12/17 09:57:38;;;;;;;4.07;3.77;;;17.40;67.40;;;;;;5044389;28;43749;-70
2021/12/17 10:00:07;;;;;;;4.07;3.77;;;17.30;67.20;;;;;;5026758;28;44167;-70
2021/12/17 10:02:39;;;;;;;3.47;3.20;;;17.30;67.60;;;;;;5041950;28;43981;-70
2021/12/17 10:05:08;;;;;;;3.90;3.60;;;17.20;67.70;;;;;;5004803;28;1116613;-70
2021/12/17 10:07:38;;;;;;;3.93;3.73;;;17.10;68.00;;;;;;5044836;28;43419;-70
2021/12/17 10:10:07;;;;;;;3.80;3.60;;;17.00;68.10;;;;;;5049108;28;43908;-70
2021/12/17 10:12:36;;;;;;;3.63;3.43;;;17.00;68.30;;;;;;5049731;28;44019;-70
2021/12/17 10:15:07;;;;;;;3.60;3.40;;;17.00;68.50;;;;;;5049206;28;43872;-69
2021/12/17 10:17:36;;;;;;;3.80;3.53;;;16.90;68.60;;;;;;5049378;28;43985;-69
2021/12/17 10:20:05;;;;;;;3.33;3.17;;;16.90;68.70;;;;;;5049445;28;43954;-70
2021/12/17 10:22:34;;;;;;;3.43;3.23;;;16.90;68.90;;;;;;5031357;28;43961;-69
2021/12/17 10:25:05;;;;;;;3.50;3.30;;;16.90;69.00;;;;;;5049040;28;43924;-70
2021/12/17 10:27:34;;;;;;;3.70;3.50;;;17.00;68.70;;;;;;5049136;28;44000;-70
2021/12/17 10:30:12;;;;;;;3.63;3.43;;;17.10;68.30;;;;;;5042768;28;44022;-69
2021/12/17 10:32:42;;;;;;;3.67;3.47;;;17.10;68.20;;;;;;5031459;28;43570;-70
2021/12/17 10:35:11;;;;;;;3.77;3.53;;;17.00;68.30;;;;;;5030667;28;47158;-70
2021/12/17 10:37:42;;;;;;;3.63;3.43;;;17.00;68.40;;;;;;5048972;28;43953;-70
2021/12/17 10:40:24;;;;;;;3.60;3.47;;;17.00;68.60;;;;;;5049125;28;43957;-70
2021/12/17 10:43:03;;;;;;;3.40;3.20;;;16.90;68.70;;;;;;5049728;28;44073;-70
2021/12/17 10:45:35;;;;;;;3.10;2.93;;;16.90;68.90;;;;;;5031166;28;45980;-69
2021/12/17 10:48:28;;;;;;;3.63;3.43;;;16.90;69.00;;;;;;5048599;28;43945;-70
2021/12/17 10:51:17;;;;;;;3.50;3.30;;;16.80;69.00;;;;;;5045186;28;43875;-70
2021/12/17 10:53:51;;;;;;;3.57;3.37;;;16.80;69.10;;;;;;5049363;28;43982;-69
2021/12/17 10:56:19;;;;;;;3.33;3.13;;;16.80;69.10;;;;;;5048801;28;44955;-70
2021/12/17 10:58:57;;;;;;;3.53;3.43;;;16.80;69.10;;;;;;5048930;28;43340;-71
2021/12/17 11:01:37;;;;;;;3.70;3.50;;;16.80;69.30;;;;;;5048716;28;43913;-70
2021/12/17 11:04:10;;;;;;;3.53;3.33;;;16.90;69.00;;;;;;5049142;28;43353;-70
2021/12/17 11:06:42;;;;;;;3.97;3.67;;;17.10;69.30;;;;;;5048294;28;44132;-69
2021/12/17 11:09:12;;;;;;;3.60;3.40;;;17.30;68.10;;;;;;5048413;28;43960;-70
2021/12/17 11:11:42;;;;;;;2.90;2.80;;;17.40;67.60;;;;;;5048566;28;43961;-70
2021/12/17 11:14:10;;;;;;;3.37;3.20;;;17.40;67.30;;;;;;5030669;28;43985;-70
2021/12/17 11:16:39;;;;;;;3.20;3.00;;;17.30;67.20;;;;;;5048394;28;45231;-69
2021/12/17 11:19:08;;;;;;;3.37;3.27;;;17.30;67.60;;;;;;5047998;28;44125;-70
2021/12/17 11:21:36;;;;;;;3.27;3.07;;;17.20;67.80;;;;;;5048205;28;44037;-69
2021/12/17 11:24:04;;;;;;;3.00;2.90;;;17.10;68.00;;;;;;5048610;28;44067;-69
2021/12/17 11:26:33;;;;;;;3.67;3.47;;;17.10;68.20;;;;;;5048067;28;43764;-70
2021/12/17 11:29:04;;;;;;;3.07;2.93;;;17.00;68.30;;;;;;5029986;28;43991;-70
2021/12/17 11:31:32;;;;;;;3.27;3.07;;;17.00;68.60;;;;;;5048206;28;43917;-69
2021/12/17 11:34:01;;;;;;;3.30;3.10;;;17.00;68.70;;;;;;5048527;28;43958;-70
2021/12/17 11:36:29;;;;;;;3.20;3.10;;;16.90;68.70;;;;;;5047983;28;44015;-70
2021/12/17 11:39:00;;;;;;;2.80;2.70;;;16.90;68.90;;;;;;5047940;28;43477;-70
2021/12/17 11:41:44;;;;;;;3.23;3.03;;;17.00;68.90;;;;;;5048224;28;43965;-70
2021/12/17 11:44:13;;;;;;;3.20;3.00;;;17.10;68.40;;;;;;5048620;28;44061;-69
2021/12/17 11:46:41;;;;;;;2.80;2.70;;;17.10;68.10;;;;;;5029591;28;46047;-70
2021/12/17 11:49:16;;;;;;;2.73;2.63;;;17.10;68.00;;;;;;5047742;28;44108;-70
2021/12/17 11:51:53;;;;;;;3.30;3.10;;;17.10;68.20;;;;;;5048076;28;44008;-69
2021/12/17 11:54:26;;;;;;;3.17;2.97;;;17.00;68.20;;;;;;5048530;28;43890;-70
2021/12/17 11:56:55;;;;;;;2.70;2.60;;;17.00;68.40;;;;;;5048072;28;43940;-69
2021/12/17 11:59:35;;;;;;;3.37;3.17;;;17.00;68.60;;;;;;5047637;28;43850;-70
2021/12/17 12:02:05;;;;;;;2.60;2.50;;;16.90;68.70;;;;;;5047880;28;43855;-70
2021/12/17 12:04:43;;;;;;;2.87;2.77;;;16.90;68.80;;;;;;5041530;28;44017;-71
2021/12/17 12:07:13;;;;;;;2.77;2.63;;;16.90;69.10;;;;;;5047731;28;43929;-71
2021/12/17 12:09:57;;;;;;;2.70;2.60;;;16.90;68.90;;;;;;5047153;28;44088;-71
2021/12/17 12:12:30;;;;;;;2.83;2.73;;;16.90;69.00;;;;;;5029458;28;43906;-70
2021/12/17 12:15:31;;;;;;;2.90;2.80;;;16.90;69.10;;;;;;5048314;28;43933;-71
2021/12/17 12:18:13;;;;;;;2.90;2.80;;;16.80;69.00;;;;;;5029198;28;44914;-71
2021/12/17 12:20:52;;;;;;;2.77;2.67;;;17.00;68.70;;;;;;5028983;28;43866;-71
2021/12/17 12:23:24;;;;;;;3.13;3.03;;;17.10;68.20;;;;;;5047637;28;43854;-72
2021/12/17 12:26:23;;;;;;;2.63;2.53;;;17.30;67.60;;;;;;5048063;28;43946;-71
2021/12/17 12:28:54;;;;;;;3.40;3.20;;;17.50;67.10;;;;;;5029093;28;43923;-72
2021/12/17 12:31:56;;;;;;;2.80;2.70;;;17.50;66.80;;;;;;5046502;28;44069;-72
2021/12/17 12:34:32;;;;;;;2.63;2.53;;;17.50;66.90;;;;;;5041186;28;44091;-71
2021/12/17 12:37:09;;;;;;;3.33;3.13;;;17.40;68.10;;;;;;5047757;28;43408;-72
2021/12/17 12:39:39;;;;;;;3.40;3.20;;;17.30;67.60;;;;;;5047068;28;45058;-72
2021/12/17 12:42:08;;;;;;;3.30;3.20;;;17.20;67.80;;;;;;5046937;28;43996;-71
2021/12/17 12:45:14;;;;;;;3.33;3.20;;;17.10;67.70;;;;;;5028894;28;43979;-71
2021/12/17 12:47:52;;;;;;;3.00;2.90;;;17.10;68.10;;;;;;5047512;28;43969;-71
2021/12/17 12:50:20;;;;;;;2.83;2.63;;;17.00;68.10;;;;;;5047276;28;43613;-70
2021/12/17 12:52:51;;;;;;;3.30;3.10;;;17.00;68.40;;;;;;5046942;28;43969;-70
2021/12/17 12:55:20;;;;;;;3.37;3.07;;;17.10;68.70;;;;;;5047097;28;43397;-70
2021/12/17 12:57:50;;;;;;;3.70;3.37;;;17.00;68.70;;;;;;5047134;28;43595;-70
2021/12/17 13:00:21;;;;;;;6.13;3.67;;;17.10;67.50;;;;;;5046506;28;43952;-70
2021/12/17 13:02:51;;;;;;;3.20;3.00;;;17.10;67.90;;;;;;5046859;28;43921;-70
2021/12/17 13:05:19;;;;;;;3.07;2.73;;;17.20;67.40;;;;;;5045900;28;43939;-70
2021/12/17 13:07:48;;;;;;;3.30;3.00;;;17.20;67.70;;;;;;5047133;28;44009;-70
2021/12/17 13:10:17;;;;;;;3.67;3.37;;;17.10;67.70;;;;;;5046178;28;45158;-70
2021/12/17 13:12:50;;;;;;;2.93;2.77;;;17.10;67.80;;;;;;5039941;28;44075;-71
2021/12/17 13:15:30;;;;;;;3.00;2.90;;;17.10;68.00;;;;;;5046725;28;43925;-70
2021/12/17 13:21:01;;;;;;;3.87;3.23;;;17.00;68.30;;;;;;5028696;28;45603;-71
2021/12/17 13:23:30;;;;;;;3.40;3.10;;;17.00;68.50;;;;;;5046604;28;43916;-70
2021/12/17 13:26:06;;;;;;;2.87;2.77;;;17.00;68.60;;;;;;5046369;28;43369;-70
2021/12/17 13:28:52;;;;;;;3.33;3.00;;;17.00;68.70;;;;;;5046993;28;43958;-70
2021/12/17 13:31:35;;;;;;;3.00;2.80;;;16.90;68.70;;;;;;5046450;28;44027;-70
2021/12/17 13:34:14;;;;;;;5.17;3.00;;;16.90;68.80;;;;;;5046348;28;43880;-69
2021/12/17 13:36:50;;;;;;;4.10;2.70;;;16.90;68.70;;;;;;5046511;28;44087;-70
2021/12/17 13:39:18;;;;;;;3.30;3.00;;;17.10;68.30;;;;;;5046547;28;44109;-70
2021/12/17 13:41:47;;;;;;;3.20;2.97;;;17.30;67.80;;;;;;5027789;28;45993;-70
2021/12/17 13:44:31;;;;;;;3.27;2.50;;;17.40;67.20;;;;;;5045999;28;43433;-70
2021/12/17 13:47:19;;;;;;;2.80;2.60;;;17.50;67.00;;;;;;5046380;28;43373;-70
2021/12/17 13:49:49;;;;;;;3.10;2.90;;;17.40;66.90;;;;;;5046696;28;44009;-70
2021/12/17 13:52:17;;;;;;;2.90;2.70;;;17.40;67.30;;;;;;5045567;28;43916;-70
2021/12/17 13:54:46;;;;;;;3.23;2.67;;;17.30;67.60;;;;;;5044604;28;44004;-70
2021/12/17 13:57:16;;;;;;;2.70;2.60;;;17.20;67.80;;;;;;5045803;28;43954;-70
2021/12/17 13:59:45;;;;;;;2.67;2.47;;;17.20;68.10;;;;;;5073123;22;44782;-75
2021/12/17 14:02:14;;;;;;;2.33;2.23;;;17.10;68.20;;;;;;5044700;28;45328;-74
2021/12/17 14:04:42;;;;;;;2.50;2.40;;;17.00;68.20;;;;;;5048029;28;44829;-76
2021/12/17 14:07:11;;;;;;;2.33;2.23;;;17.00;68.40;;;;;;5048323;28;43928;-77
2021/12/17 14:09:39;;;;;;;2.50;2.40;;;17.00;68.50;;;;;;5067134;28;43476;-74
2021/12/17 14:12:09;;;;;;;2.80;2.70;;;17.00;68.70;;;;;;5066493;28;43861;-75
2021/12/17 14:14:59;;;;;;;2.60;2.50;;;17.00;68.70;;;;;;5066620;28;43908;-74
2021/12/17 14:17:33;;;;;;;2.60;2.40;;;17.10;68.30;;;;;;5066628;28;43848;-75
2021/12/17 14:20:07;;;;;;;2.50;2.40;;;17.20;68.00;;;;;;5048935;28;43984;-80
2021/12/17 14:22:38;;;;;;;2.40;2.23;;;17.20;67.90;;;;;;5047971;28;46526;-78
2021/12/17 14:25:30;;;;;;;3.03;2.93;;;17.20;68.10;;;;;;5048568;28;45067;-81
2021/12/17 14:27:59;;;;;;;2.90;2.80;;;17.10;68.20;;;;;;5067083;28;44006;-75
2021/12/17 14:30:33;;;;;;;2.80;2.60;;;17.10;68.40;;;;;;5048462;28;44074;-74
2021/12/17 14:33:06;;;;;;;2.47;2.37;;;17.00;68.40;;;;;;5047466;28;45286;-76
2021/12/17 14:35:48;;;;;;;2.60;2.50;;;17.00;68.60;;;;;;5066412;28;43947;-73
2021/12/17 14:38:19;;;;;;;2.30;2.20;;;17.00;68.70;;;;;;5048085;28;43409;-74
2021/12/17 14:40:57;;;;;;;3.10;2.60;;;16.90;68.70;;;;;;5066500;28;43983;-74
2021/12/17 14:43:31;;;;;;;2.60;2.40;;;16.90;68.80;;;;;;5047814;28;46023;-75
2021/12/17 14:46:10;;;;;;;2.73;2.50;;;16.90;68.80;;;;;;5065992;28;43509;-75
2021/12/17 14:48:48;;;;;;;3.33;2.87;;;16.90;68.80;;;;;;5066200;28;43798;-74
2021/12/17 15:02:44;;;;;;;7.87;7.37;;;17.50;65.40;;;;;;5051727;28;44019;-74
2021/12/17 15:05:12;;;;;;;7.00;6.60;;;17.50;65.80;;;;;;5069034;28;43944;-74
2021/12/17 15:07:40;;;;;;;6.87;6.57;;;17.40;66.00;;;;;;5050343;28;44679;-76
2021/12/17 15:10:10;;;;;;;6.27;5.93;;;17.30;66.40;;;;;;5069152;28;43774;-74
2021/12/17 15:12:39;;;;;;;6.17;5.77;;;17.30;66.70;;;;;;5063008;28;43972;-74
2021/12/17 15:15:13;;;;;;;6.30;6.00;;;17.20;67.00;;;;;;5062284;28;43923;-74
2021/12/17 15:17:41;;;;;;;6.57;5.67;;;17.10;67.40;;;;;;5050864;28;44400;-74
2021/12/17 15:20:18;;;;;;;6.40;6.00;;;17.10;67.80;;;;;;5050724;28;44074;-73
2021/12/17 15:22:46;;;;;;;5.80;5.50;;;17.00;67.80;;;;;;5051080;28;43547;-73
2021/12/17 15:25:16;;;;;;;13.83;5.97;;;17.00;68.10;;;;;;5068655;28;43961;-74
2021/12/17 15:27:44;;;;;;;7.33;5.77;;;17.00;68.70;;;;;;5069069;28;43766;-74
2021/12/17 15:30:14;;;;;;;7.67;5.90;;;17.00;68.80;;;;;;5050886;28;44027;-73
2021/12/17 15:32:43;;;;;;;5.40;5.20;;;17.00;68.50;;;;;;5069140;28;43562;-74
2021/12/17 15:35:12;;;;;;;5.53;5.10;;;17.10;67.90;;;;;;5050073;28;44673;-74
2021/12/17 15:37:40;;;;;;;5.87;4.87;;;17.20;67.70;;;;;;5068643;28;43927;-74
2021/12/17 15:40:10;;;;;;;5.10;4.60;;;17.20;67.70;;;;;;5068765;28;43763;-74